Clewiston, Florida
Current Conditions -  °F | °C
As of 11:35 AM on Sunday 23 Nov 2014 (Local Time) from KIMM Reporting Station
Broken Clouds Broken Clouds  
Wind Chill: 86°   Ceiling: 3500
Heat Index: 99°   Visibility: 5mi
Dew Point: 79°   Wind: 13mph
Humidity: 79%   Direction: 160°SSE
Pressure: 30.02"   Gusts: 18mph
Location:  26.75°N, 80.93°W
Report Text: KIMM 231635Z AUTO 16011G16KT 5SM SCT027 BKN035 30/26 A3002 RMK A01 P000
Loading
Personal Weather Stations






























Interactive Weather Map New forecast layout! Learn more

10-Day Weather Forecast

Advertisements
Track Severe Weather on mobile